Los Angeles, California
Traffic Map
Current Weather Conditions
Los Angeles, California
Clear
Clear
25°
Feels Like: 26°
Wind Chill: 25° Ceiling: Unl
Heat Index: 26° Visibility: 10mi
Dew Point: 17° Wind: 8mph
Humidity: 62% Direction: 280° (W)
Pressure: 29.81in Gusts: 0mph
Raw Report DataKCQT 182247Z AUTO 28007KT 10SM CLR 25/17 A2981 RMK AO2 SLP093 T02500172
Traffic Incident Summary
Active as of:
Severity:
Category:
InformationThere was an issue retrieving the traffic information for this location. Please try a different location or try again shortly.
Advertisements
Track Severe Weather on mobile